Terminal Aerodrome Forecast
Issued by NWS

Home | Current Version | Previous Version | Text Only | Print | Product List | Glossary On
Versions: 1 2 3 4 5 6 7 8 9 10 11 12 13 14 15 16 17 18 19 20 21 22 23 24 25 26 27 28 29
000
FTUS41 KBTV 272052 AAA
TAFPBG
TAF AMD
KPBG 272052Z 2721/2818 35017G26KT 2SM -SN BR OVC025
      TEMPO 2721/2723 1/2SM SN FG OVC009
     FM272300 35014G21KT 5SM -SN BR OVC020
     FM280300 35013G20KT P6SM OVC025
     FM281200 34007KT P6SM BKN050=

USA.gov is the U.S. government's official web portal to all federal, state and local government web resources and services.